createdAt,value
2022-12-15T00:01:00.056Z,98632.19
2022-12-15T00:03:27.168Z,98627.03
2022-12-15T00:05:54.062Z,98632.06
2022-12-15T00:08:20.872Z,98645.00
2022-12-15T00:10:49.077Z,98645.47
2022-12-15T00:13:16.447Z,98655.56
2022-12-15T00:15:46.502Z,98654.44
2022-12-15T00:18:13.659Z,98675.31
2022-12-15T00:20:40.592Z,98673.50
2022-12-15T00:23:09.609Z,98687.59
2022-12-15T00:34:18.272Z,98688.25
2022-12-15T00:36:45.137Z,98687.91
2022-12-15T00:39:16.976Z,98687.75
2022-12-15T00:41:43.851Z,98678.59
2022-12-15T00:44:13.414Z,98681.06
2022-12-15T00:46:42.809Z,98678.44
2022-12-15T00:49:10.872Z,98681.81
2022-12-15T00:51:45.145Z,98689.78
2022-12-15T00:54:17.914Z,98691.75
2022-12-15T00:56:45.332Z,98696.25
2022-12-15T00:59:13.056Z,98696.56
2022-12-15T01:01:40.774Z,98703.53
2022-12-15T01:04:08.110Z,98714.47
2022-12-15T01:06:35.168Z,98710.16
2022-12-15T01:09:06.905Z,98715.97
2022-12-15T01:11:33.964Z,98724.44
2022-12-15T01:14:01.421Z,98720.25
2022-12-15T01:16:28.288Z,98710.81
2022-12-15T01:18:55.450Z,98711.13
2022-12-15T01:21:25.078Z,98726.72
2022-12-15T01:23:53.496Z,98739.00
2022-12-15T01:26:21.586Z,98738.66
2022-12-15T01:28:48.694Z,98739.34
2022-12-15T01:31:15.452Z,98739.97
2022-12-15T01:33:42.215Z,98748.09
2022-12-15T01:36:10.281Z,98744.78
2022-12-15T01:38:37.517Z,98758.56
2022-12-15T01:41:09.372Z,98751.25
2022-12-15T01:43:40.838Z,98755.91
2022-12-15T01:46:10.912Z,98751.94
2022-12-15T01:48:46.667Z,98766.00
2022-12-15T01:51:22.014Z,98766.84
2022-12-15T01:53:59.342Z,98766.69
2022-12-15T01:56:33.993Z,98757.75
2022-12-15T01:59:13.272Z,98761.22
2022-12-15T02:01:40.212Z,98754.09
2022-12-15T02:04:10.961Z,98744.31
2022-12-15T02:06:38.165Z,98752.91
2022-12-15T02:09:06.642Z,98750.09
2022-12-15T02:11:59.414Z,98758.56
2022-12-15T02:14:51.763Z,98753.06
2022-12-15T02:17:36.866Z,98741.97
2022-12-15T02:20:50.621Z,98740.31
2022-12-15T02:24:01.245Z,98741.31
2022-12-15T02:27:12.825Z,98743.63
2022-12-15T02:30:20.884Z,98743.63
2022-12-15T02:33:04.007Z,98740.13
2022-12-15T02:35:45.224Z,98751.59
2022-12-15T02:38:12.355Z,98755.91
2022-12-15T02:40:40.120Z,98754.09
2022-12-15T02:43:10.064Z,98740.47
2022-12-15T02:45:53.679Z,98741.66
2022-12-15T02:48:37.011Z,98756.25
2022-12-15T02:51:26.490Z,98759.59
2022-12-15T02:54:21.479Z,98751.31
2022-12-15T02:57:03.766Z,98758.28
2022-12-15T02:59:42.336Z,98763.25
2022-12-15T03:02:14.132Z,98766.56
2022-12-15T03:04:43.398Z,98779.97
2022-12-15T03:07:10.560Z,98775.50
2022-12-15T03:09:38.027Z,98783.28
2022-12-15T03:12:05.739Z,98791.75
2022-12-15T03:14:32.785Z,98785.78
2022-12-15T03:16:59.914Z,98786.44
2022-12-15T03:19:28.540Z,98789.94
2022-12-15T03:21:57.011Z,98789.75
2022-12-15T03:24:23.963Z,98793.56
2022-12-15T03:26:50.716Z,98797.38
2022-12-15T03:29:18.020Z,98793.06
2022-12-15T03:31:45.831Z,98791.91
2022-12-15T03:34:17.549Z,98789.13
2022-12-15T03:36:46.382Z,98800.72
2022-12-15T03:39:13.527Z,98804.84
2022-12-15T03:41:40.585Z,98814.63
2022-12-15T03:44:08.017Z,98802.56
2022-12-15T03:46:34.772Z,98806.19
2022-12-15T03:49:01.621Z,98794.56
2022-12-15T03:51:28.579Z,98793.75
2022-12-15T03:53:56.766Z,98798.06
2022-12-15T03:56:23.567Z,98796.06
2022-12-15T03:58:50.874Z,98801.69
2022-12-15T04:01:27.712Z,98811.97
2022-12-15T04:04:00.300Z,98823.94
2022-12-15T04:06:28.471Z,98829.72
2022-12-15T04:08:56.830Z,98821.75
2022-12-15T04:11:23.875Z,98820.94
2022-12-15T04:13:50.591Z,98827.72
2022-12-15T04:16:20.359Z,98824.06
2022-12-15T04:18:48.227Z,98831.56
2022-12-15T04:21:14.979Z,98832.06
2022-12-15T04:23:41.812Z,98833.38
2022-12-15T04:26:21.166Z,98830.22
2022-12-15T04:29:08.752Z,98827.56
2022-12-15T04:31:35.777Z,98839.53
2022-12-15T04:34:07.984Z,98843.50
2022-12-15T04:36:38.495Z,98837.53
2022-12-15T04:39:05.788Z,98838.00
2022-12-15T04:41:34.665Z,98828.91
2022-12-15T04:44:01.836Z,98828.72
2022-12-15T04:46:29.398Z,98830.06
2022-12-15T04:48:56.263Z,98833.56
2022-12-15T04:51:24.043Z,98829.88
2022-12-15T04:53:51.088Z,98824.41
2022-12-15T04:56:18.840Z,98833.03
2022-12-15T04:58:48.310Z,98833.03
2022-12-15T05:01:15.564Z,98832.88
2022-12-15T05:03:42.984Z,98830.72
2022-12-15T05:06:09.927Z,98837.84
2022-12-15T05:08:37.382Z,98840.66
2022-12-15T05:11:04.536Z,98836.69
2022-12-15T05:13:31.672Z,98838.19
2022-12-15T05:16:00.338Z,98855.94
2022-12-15T05:18:27.348Z,98856.28
2022-12-15T05:20:54.222Z,98845.81
2022-12-15T05:23:21.179Z,98852.47
2022-12-15T05:25:48.171Z,98857.75
2022-12-15T05:28:16.015Z,98857.59
2022-12-15T05:30:42.883Z,98860.09
2022-12-15T05:33:11.089Z,98865.41
2022-12-15T05:35:38.036Z,98857.75
2022-12-15T05:38:05.040Z,98862.06
2022-12-15T05:40:32.150Z,98863.06
2022-12-15T05:42:59.858Z,98862.91
2022-12-15T05:45:27.644Z,98848.47
2022-12-15T05:47:55.504Z,98838.84
2022-12-15T05:50:24.015Z,98841.34
2022-12-15T05:52:51.391Z,98841.50
2022-12-15T05:55:18.929Z,98847.66
2022-12-15T05:57:51.906Z,98845.81
2022-12-15T06:00:19.650Z,98849.28
2022-12-15T06:02:46.513Z,98859.59
2022-12-15T06:05:13.732Z,98869.03
2022-12-15T06:07:42.275Z,98869.03
2022-12-15T06:10:10.145Z,98867.03
2022-12-15T06:12:36.985Z,98869.38
2022-12-15T06:15:07.164Z,98868.69
2022-12-15T06:17:34.082Z,98875.19
2022-12-15T06:20:01.697Z,98869.34
2022-12-15T06:22:29.284Z,98872.53
2022-12-15T06:24:57.588Z,98871.34
2022-12-15T06:27:25.115Z,98865.72
2022-12-15T06:29:51.921Z,98874.53
2022-12-15T06:32:18.999Z,98890.13
2022-12-15T06:34:45.924Z,98890.28
2022-12-15T06:37:13.058Z,98886.47
2022-12-15T06:39:39.901Z,98882.97
2022-12-15T06:42:08.142Z,98887.78
2022-12-15T06:44:35.114Z,98884.94
2022-12-15T06:47:02.321Z,98891.94
2022-12-15T06:49:29.256Z,98899.22
2022-12-15T06:51:56.148Z,98898.91
2022-12-15T06:54:23.087Z,98901.38
2022-12-15T06:56:50.747Z,98901.72
2022-12-15T06:59:19.208Z,98905.69
2022-12-15T07:01:46.425Z,98895.91
2022-12-15T07:04:13.534Z,98895.75
2022-12-15T07:06:40.955Z,98896.25
2022-12-15T07:09:13.759Z,98904.22
2022-12-15T07:11:40.635Z,98896.41
2022-12-15T07:14:09.160Z,98895.56
2022-12-15T07:16:37.494Z,98887.78
2022-12-15T07:19:04.807Z,98889.28
2022-12-15T07:22:01.399Z,98886.13
2022-12-15T07:24:29.219Z,98884.78
2022-12-15T07:26:56.469Z,98888.78
2022-12-15T07:30:45.962Z,98884.13
2022-12-15T07:33:40.849Z,98880.66
2022-12-15T07:41:56.721Z,98906.03
2022-12-15T07:48:33.978Z,98908.16
2022-12-15T07:51:19.801Z,98909.50
2022-12-15T07:53:55.319Z,98912.34
2022-12-15T07:56:38.979Z,98909.66
2022-12-15T07:59:31.892Z,98910.84
2022-12-15T08:02:23.386Z,98906.22
2022-12-15T08:04:54.951Z,98902.53
2022-12-15T08:07:30.285Z,98904.22
2022-12-15T08:09:57.607Z,98915.31
2022-12-15T08:12:43.293Z,98912.31
2022-12-15T08:15:21.965Z,98918.94
2022-12-15T08:17:56.552Z,98929.75
2022-12-15T08:29:51.054Z,98968.75
2022-12-15T08:32:19.054Z,98969.59
2022-12-15T08:34:46.267Z,98969.25
2022-12-15T08:37:23.845Z,98967.56
2022-12-15T08:39:50.891Z,98968.75
2022-12-15T08:42:29.199Z,98970.25
2022-12-15T08:45:46.828Z,98965.22
2022-12-15T08:53:21.318Z,98957.22
2022-12-15T09:21:35.226Z,98953.63
2022-12-15T09:24:03.708Z,98957.25
2022-12-15T09:26:33.926Z,98971.84
2022-12-15T09:29:01.633Z,98976.16
2022-12-15T09:31:31.981Z,98976.44
2022-12-15T09:34:00.905Z,98975.09
2022-12-15T09:36:31.405Z,98971.69
2022-12-15T09:38:59.818Z,98960.53
2022-12-15T09:41:30.455Z,98959.75
2022-12-15T09:44:02.974Z,98968.84
2022-12-15T09:46:55.590Z,98964.75
2022-12-15T09:49:45.542Z,98970.09
2022-12-15T09:52:18.244Z,98969.59
2022-12-15T09:54:45.420Z,98976.22
2022-12-15T09:57:25.491Z,98976.88
2022-12-15T10:00:12.884Z,98968.00
2022-12-15T10:03:23.762Z,98957.19
2022-12-15T10:06:25.979Z,98936.16
2022-12-15T10:09:02.162Z,98936.91
2022-12-15T10:11:55.109Z,98943.41
2022-12-15T10:14:37.739Z,98942.56
2022-12-15T10:17:22.743Z,98932.63
2022-12-15T10:20:05.217Z,98933.28
2022-12-15T10:22:36.984Z,98939.63
2022-12-15T10:25:20.864Z,98937.31
2022-12-15T10:28:28.466Z,98950.25
2022-12-15T10:31:01.540Z,98951.78
2022-12-15T10:33:35.173Z,98946.72
2022-12-15T10:36:08.808Z,98950.25
2022-12-15T10:38:38.113Z,98956.38
2022-12-15T10:41:09.480Z,98963.34
2022-12-15T10:43:39.363Z,98954.13
2022-12-15T10:46:14.675Z,98953.03
2022-12-15T10:48:43.508Z,98937.84
2022-12-15T10:51:26.394Z,98936.47
2022-12-15T10:54:05.314Z,98936.28
2022-12-15T10:56:34.576Z,98929.28
2022-12-15T10:59:20.944Z,98919.16
2022-12-15T11:01:48.239Z,98912.25
2022-12-15T11:04:29.095Z,98903.00
2022-12-15T11:06:58.741Z,98885.91
2022-12-15T11:09:33.321Z,98879.50
2022-12-15T11:12:03.380Z,98867.66
2022-12-15T11:14:44.825Z,98864.06
2022-12-15T11:17:17.568Z,98868.00
2022-12-15T11:20:00.050Z,98862.47
2022-12-15T11:22:43.125Z,98888.69
2022-12-15T11:25:35.013Z,98887.53
2022-12-15T11:28:15.382Z,98888.13
2022-12-15T11:30:50.333Z,98890.09
2022-12-15T11:33:17.135Z,98881.31
2022-12-15T11:36:05.346Z,98872.25
2022-12-15T11:38:43.428Z,98876.91
2022-12-15T11:41:33.390Z,98877.63
2022-12-15T11:44:27.009Z,98886.41
2022-12-15T11:47:09.799Z,98902.56
2022-12-15T11:50:01.785Z,98899.22
2022-12-15T11:52:54.782Z,98893.59
2022-12-15T11:55:41.239Z,98890.53
2022-12-15T11:58:39.669Z,98880.28
2022-12-15T12:01:23.985Z,98865.09
2022-12-15T12:04:11.086Z,98846.13
2022-12-15T12:06:52.732Z,98832.91
2022-12-15T12:09:32.086Z,98829.19
2022-12-15T12:12:14.550Z,98829.72
2022-12-15T12:14:57.722Z,98816.72
2022-12-15T12:17:42.055Z,98800.16
2022-12-15T12:20:18.336Z,98805.47
2022-12-15T12:23:00.129Z,98805.28
2022-12-15T12:25:27.272Z,98801.53
2022-12-15T12:28:01.972Z,98791.47
2022-12-15T12:30:40.293Z,98793.06
2022-12-15T12:33:21.689Z,98787.59
2022-12-15T12:35:55.568Z,98784.91
2022-12-15T12:38:30.858Z,98775.56
2022-12-15T12:41:07.286Z,98773.38
2022-12-15T12:43:40.243Z,98779.19
2022-12-15T12:46:16.124Z,98786.13
2022-12-15T12:48:51.156Z,98790.25
2022-12-15T12:51:28.558Z,98790.22
2022-12-15T12:53:57.738Z,98779.03
2022-12-15T12:56:39.528Z,98785.63
2022-12-15T12:59:38.323Z,98780.09
2022-12-15T13:03:15.791Z,98783.94
2022-12-15T13:05:48.834Z,98778.22
2022-12-15T13:08:51.776Z,98766.44
2022-12-15T13:11:58.586Z,98754.84
2022-12-15T13:17:41.735Z,98762.09
2022-12-15T13:20:23.996Z,98753.31
2022-12-15T13:22:54.804Z,98746.41
2022-12-15T13:25:43.416Z,98739.91
2022-12-15T13:28:25.525Z,98738.25
2022-12-15T13:31:46.679Z,98740.63
2022-12-15T13:34:24.192Z,98733.75
2022-12-15T13:37:02.373Z,98732.19
2022-12-15T13:39:57.642Z,98735.38
2022-12-15T13:42:47.268Z,98717.84
2022-12-15T13:45:59.448Z,98715.84
2022-12-15T13:48:36.637Z,98711.81
2022-12-15T13:51:21.833Z,98710.59
2022-12-15T13:53:58.176Z,98714.72
2022-12-15T13:56:46.308Z,98713.00
2022-12-15T13:59:26.151Z,98713.72
2022-12-15T14:01:54.594Z,98717.13
2022-12-15T14:04:22.212Z,98708.03
2022-12-15T14:06:54.069Z,98705.16
2022-12-15T14:09:29.255Z,98705.53
2022-12-15T14:11:58.955Z,98698.78
2022-12-15T14:14:31.328Z,98705.94
2022-12-15T14:17:02.116Z,98707.38
2022-12-15T14:19:40.456Z,98715.13
2022-12-15T14:22:27.073Z,98714.28
2022-12-15T14:25:01.762Z,98726.44
2022-12-15T14:27:33.415Z,98726.63
2022-12-15T14:30:23.406Z,98731.22
2022-12-15T14:32:58.205Z,98729.09
2022-12-15T14:35:31.822Z,98724.41
2022-12-15T14:38:16.986Z,98724.75
2022-12-15T14:40:49.356Z,98718.94
2022-12-15T14:43:24.839Z,98722.63
2022-12-15T14:45:57.396Z,98722.84
2022-12-15T14:51:20.184Z,98732.31
2022-12-15T14:53:53.023Z,98730.59
2022-12-15T14:56:30.820Z,98725.81
2022-12-15T14:59:03.439Z,98741.53
2022-12-15T15:01:37.942Z,98742.84
2022-12-15T15:03:10.218Z,98749.53
2022-12-15T15:04:21.429Z,98742.66
2022-12-15T15:06:55.733Z,98745.13
2022-12-15T15:09:27.010Z,98746.13
2022-12-15T15:12:00.675Z,98746.13
2022-12-15T15:14:33.737Z,98739.88
2022-12-15T15:17:06.761Z,98739.41
2022-12-15T15:19:39.751Z,98733.78
2022-12-15T15:22:29.798Z,98735.31
2022-12-15T15:24:57.048Z,98726.38
2022-12-15T15:27:35.871Z,98731.03
2022-12-15T15:30:19.901Z,98719.75
2022-12-15T15:32:56.611Z,98720.09
2022-12-15T15:35:29.032Z,98727.66
2022-12-15T15:38:03.689Z,98738.44
2022-12-15T15:40:31.427Z,98731.84
2022-12-15T15:42:58.253Z,98734.31
2022-12-15T15:45:26.517Z,98732.63
2022-12-15T15:47:56.163Z,98732.88
2022-12-15T15:50:29.024Z,98730.06
2022-12-15T15:52:57.885Z,98747.03
2022-12-15T15:55:36.293Z,98750.00
2022-12-15T15:58:11.414Z,98752.50
2022-12-15T16:00:40.548Z,98755.81
2022-12-15T16:03:07.849Z,98762.00
2022-12-15T16:05:35.932Z,98750.41
2022-12-15T16:08:04.694Z,98751.94
2022-12-15T16:10:31.710Z,98747.59
2022-12-15T16:13:01.431Z,98746.63
2022-12-15T16:15:31.145Z,98745.78
2022-12-15T16:17:59.466Z,98750.28
2022-12-15T16:20:29.156Z,98742.66
2022-12-15T16:23:03.440Z,98743.81
2022-12-15T16:25:43.891Z,98747.97
2022-12-15T16:28:18.543Z,98739.19
2022-12-15T16:30:45.658Z,98739.84
2022-12-15T16:33:15.043Z,98741.88
2022-12-15T16:35:43.666Z,98744.00
2022-12-15T16:38:18.441Z,98735.38
2022-12-15T16:40:45.858Z,98735.22
2022-12-15T16:43:16.986Z,98734.38
2022-12-15T16:45:47.402Z,98735.88
2022-12-15T16:48:16.463Z,98742.34
2022-12-15T16:50:51.961Z,98742.00
2022-12-15T16:53:23.442Z,98748.31
2022-12-15T16:55:55.261Z,98742.00
2022-12-15T16:58:23.360Z,98739.34
2022-12-15T17:00:50.217Z,98733.88
2022-12-15T17:03:21.646Z,98739.34
2022-12-15T17:05:51.917Z,98731.56
2022-12-15T17:08:25.686Z,98741.38
2022-12-15T17:10:52.951Z,98748.97
2022-12-15T17:13:36.525Z,98742.38
2022-12-15T17:16:07.799Z,98734.41
2022-12-15T17:18:36.566Z,98727.25
2022-12-15T17:21:10.570Z,98720.31
2022-12-15T17:23:39.641Z,98710.19
2022-12-15T17:26:27.651Z,98708.69
2022-12-15T17:29:00.759Z,98707.38
2022-12-15T17:31:35.783Z,98706.53
2022-12-15T17:34:27.116Z,98707.72
2022-12-15T17:36:55.172Z,98702.59
2022-12-15T17:39:24.015Z,98710.38
2022-12-15T17:42:01.001Z,98702.59
2022-12-15T17:44:34.276Z,98706.91
2022-12-15T17:47:03.406Z,98699.28
2022-12-15T17:49:35.605Z,98701.09
2022-12-15T17:52:12.243Z,98698.94
2022-12-15T17:54:39.104Z,98701.44
2022-12-15T17:57:06.005Z,98698.63
2022-12-15T17:59:32.849Z,98698.78
2022-12-15T18:01:59.956Z,98693.97
2022-12-15T18:04:26.979Z,98693.81
2022-12-15T18:07:01.197Z,98709.38
2022-12-15T18:09:29.559Z,98710.72
2022-12-15T18:11:56.849Z,98708.56
2022-12-15T18:14:23.713Z,98719.81
2022-12-15T18:16:50.626Z,98715.53
2022-12-15T18:19:17.500Z,98716.19
2022-12-15T18:21:44.575Z,98712.53
2022-12-15T18:24:15.663Z,98702.94
2022-12-15T18:26:43.068Z,98698.13
2022-12-15T18:29:14.867Z,98696.13
2022-12-15T18:31:42.323Z,98698.94
2022-12-15T18:34:12.574Z,98687.34
2022-12-15T18:36:39.649Z,98686.66
2022-12-15T18:39:18.028Z,98681.03
2022-12-15T18:41:48.023Z,98687.31
2022-12-15T18:44:24.372Z,98680.34
2022-12-15T18:46:51.972Z,98676.38
2022-12-15T18:49:19.674Z,98689.31
2022-12-15T18:51:47.612Z,98677.38
2022-12-15T18:54:20.027Z,98675.72
2022-12-15T18:56:47.149Z,98661.44
2022-12-15T18:59:17.972Z,98663.13
2022-12-15T19:01:47.192Z,98665.44
2022-12-15T19:04:14.791Z,98664.09
2022-12-15T19:06:44.323Z,98667.75
2022-12-15T19:09:18.846Z,98659.63
2022-12-15T19:11:48.395Z,98662.97
2022-12-15T19:14:15.496Z,98666.13
2022-12-15T19:16:42.290Z,98676.06
2022-12-15T19:19:17.061Z,98664.47
2022-12-15T19:21:44.367Z,98666.47
2022-12-15T19:24:15.265Z,98656.00
2022-12-15T19:26:43.860Z,98657.88
2022-12-15T19:29:17.963Z,98645.91
2022-12-15T19:31:45.562Z,98644.59
2022-12-15T19:34:12.556Z,98635.81
2022-12-15T19:36:40.844Z,98641.16
2022-12-15T19:39:19.940Z,98631.03
2022-12-15T19:41:48.364Z,98636.16
2022-12-15T19:44:16.321Z,98637.97
2022-12-15T19:46:44.820Z,98643.09
2022-12-15T19:49:12.811Z,98636.66
2022-12-15T19:51:40.404Z,98627.88
2022-12-15T19:54:16.962Z,98635.50
2022-12-15T19:56:43.878Z,98648.78
2022-12-15T19:59:26.178Z,98642.63
2022-12-15T20:01:53.269Z,98649.78
2022-12-15T20:04:24.028Z,98640.31
2022-12-15T20:06:51.502Z,98642.47
2022-12-15T20:09:19.140Z,98650.09
2022-12-15T20:11:46.827Z,98659.84
2022-12-15T20:14:17.623Z,98649.06
2022-12-15T20:16:45.149Z,98642.28
2022-12-15T20:19:12.132Z,98647.09
2022-12-15T20:21:41.476Z,98644.09
2022-12-15T20:24:14.817Z,98635.97
2022-12-15T20:26:44.458Z,98632.81
2022-12-15T20:29:24.926Z,98646.59
2022-12-15T20:31:52.414Z,98634.13
2022-12-15T20:34:19.618Z,98641.41
2022-12-15T20:36:46.522Z,98630.47
2022-12-15T20:39:22.738Z,98643.56
2022-12-15T20:41:50.681Z,98645.19
2022-12-15T20:44:17.506Z,98654.84
2022-12-15T20:46:46.356Z,98654.22
2022-12-15T20:49:16.849Z,98659.50
2022-12-15T20:51:45.805Z,98654.66
2022-12-15T20:54:17.317Z,98648.84
2022-12-15T20:56:45.241Z,98656.13
2022-12-15T20:59:12.461Z,98663.25
2022-12-15T21:01:40.402Z,98659.97
2022-12-15T21:04:22.553Z,98663.44
2022-12-15T21:06:54.502Z,98674.22
2022-12-15T21:09:22.933Z,98661.63
2022-12-15T21:11:50.003Z,98670.75
2022-12-15T21:14:20.168Z,98666.47
2022-12-15T21:16:47.341Z,98662.50
2022-12-15T21:19:21.228Z,98657.19
2022-12-15T21:21:53.027Z,98651.88
2022-12-15T21:24:26.862Z,98650.72
2022-12-15T21:26:54.816Z,98645.91
2022-12-15T21:29:26.170Z,98656.69
2022-12-15T21:31:53.127Z,98646.25
2022-12-15T21:34:21.288Z,98653.56
2022-12-15T21:36:54.922Z,98656.84
2022-12-15T21:39:26.810Z,98650.59
2022-12-15T21:41:55.119Z,98658.03
2022-12-15T21:44:22.330Z,98648.22
2022-12-15T21:46:49.090Z,98643.25
2022-12-15T21:49:18.127Z,98647.59
2022-12-15T21:51:51.941Z,98643.94
2022-12-15T21:54:26.062Z,98633.00
2022-12-15T21:56:56.153Z,98631.34
2022-12-15T21:59:27.901Z,98632.19
2022-12-15T22:01:54.730Z,98634.16
2022-12-15T22:04:26.320Z,98637.78
2022-12-15T22:06:55.035Z,98650.25
2022-12-15T22:09:22.146Z,98653.56
2022-12-15T22:11:53.224Z,98656.72
2022-12-15T22:14:26.883Z,98657.22
2022-12-15T22:16:54.301Z,98669.31
2022-12-15T22:19:22.656Z,98671.13
2022-12-15T22:21:49.692Z,98665.81
2022-12-15T22:24:17.830Z,98659.69
2022-12-15T22:26:44.934Z,98664.19
2022-12-15T22:29:16.925Z,98664.69
2022-12-15T22:31:44.490Z,98661.19
2022-12-15T22:34:14.950Z,98666.66
2022-12-15T22:36:42.444Z,98666.81
2022-12-15T22:39:09.921Z,98667.84
2022-12-15T22:41:41.362Z,98666.50
2022-12-15T22:44:18.348Z,98673.59
2022-12-15T22:46:47.947Z,98667.97
2022-12-15T22:49:19.763Z,98663.97
2022-12-15T22:51:47.860Z,98668.81
2022-12-15T22:54:19.394Z,98661.03
2022-12-15T22:56:54.881Z,98670.63
2022-12-15T22:59:30.505Z,98675.91
2022-12-15T23:01:57.878Z,98666.16
2022-12-15T23:04:25.056Z,98665.47
2022-12-15T23:06:52.096Z,98669.13
2022-12-15T23:09:19.147Z,98667.16
2022-12-15T23:11:47.883Z,98668.47
2022-12-15T23:14:17.257Z,98664.34
2022-12-15T23:16:46.073Z,98659.88
2022-12-15T23:19:13.332Z,98660.53
2022-12-15T23:21:40.316Z,98666.19
2022-12-15T23:24:08.423Z,98663.53
2022-12-15T23:26:35.269Z,98658.69
2022-12-15T23:29:03.651Z,98665.19
2022-12-15T23:31:30.589Z,98650.25
2022-12-15T23:33:57.439Z,98650.06
2022-12-15T23:36:24.765Z,98648.28
2022-12-15T23:38:51.519Z,98653.41
2022-12-15T23:41:18.593Z,98646.78
2022-12-15T23:43:45.650Z,98645.28
2022-12-15T23:46:13.949Z,98650.59
2022-12-15T23:48:43.183Z,98649.59
2022-12-15T23:51:12.749Z,98645.44
2022-12-15T23:53:40.877Z,98652.13
2022-12-15T23:56:11.378Z,98648.59
2022-12-15T23:58:40.854Z,98649.28
